sensor_id;sensor_type;location;lat;lon;timestamp;pressure;altitude;pressure_sealevel;temperature;humidity
11114;BME280;5610;52.154;9.198;2023-02-23T00:00:07;100315.72;;;8.75;100.00
11114;BME280;5610;52.154;9.198;2023-02-23T00:03:03;100326.84;;;8.82;100.00
11114;BME280;5610;52.154;9.198;2023-02-23T00:05:49;100324.00;;;8.85;100.00
11114;BME280;5610;52.154;9.198;2023-02-23T00:08:35;100326.56;;;8.86;100.00
11114;BME280;5610;52.154;9.198;2023-02-23T00:11:20;100325.81;;;8.84;100.00
11114;BME280;5610;52.154;9.198;2023-02-23T00:14:06;100325.53;;;8.89;100.00
11114;BME280;5610;52.154;9.198;2023-02-23T00:16:53;100322.59;;;8.93;100.00
11114;BME280;5610;52.154;9.198;2023-02-23T00:19:38;100314.72;;;8.92;100.00
11114;BME280;5610;52.154;9.198;2023-02-23T00:22:26;100309.31;;;8.93;100.00
11114;BME280;5610;52.154;9.198;2023-02-23T00:25:11;100316.31;;;8.94;100.00
11114;BME280;5610;52.154;9.198;2023-02-23T00:27:58;100320.72;;;8.95;100.00
11114;BME280;5610;52.154;9.198;2023-02-23T00:30:43;100316.06;;;8.99;100.00
11114;BME280;5610;52.154;9.198;2023-02-23T00:33:30;100314.16;;;9.01;100.00
11114;BME280;5610;52.154;9.198;2023-02-23T00:36:17;100310.75;;;8.99;100.00
11114;BME280;5610;52.154;9.198;2023-02-23T00:39:05;100321.28;;;9.00;100.00
11114;BME280;5610;52.154;9.198;2023-02-23T00:42:01;100311.97;;;8.93;100.00
11114;BME280;5610;52.154;9.198;2023-02-23T00:44:46;100326.56;;;8.86;100.00
11114;BME280;5610;52.154;9.198;2023-02-23T00:47:32;100329.50;;;8.82;100.00
11114;BME280;5610;52.154;9.198;2023-02-23T00:50:20;100324.56;;;8.75;100.00
11114;BME280;5610;52.154;9.198;2023-02-23T00:53:06;100323.00;;;8.71;100.00
11114;BME280;5610;52.154;9.198;2023-02-23T00:55:51;100330.31;;;8.68;100.00
11114;BME280;5610;52.154;9.198;2023-02-23T00:58:37;100334.78;;;8.67;100.00
11114;BME280;5610;52.154;9.198;2023-02-23T01:01:23;100335.69;;;8.66;100.00
11114;BME280;5610;52.154;9.198;2023-02-23T01:04:10;100346.25;;;8.68;100.00
11114;BME280;5610;52.154;9.198;2023-02-23T01:06:57;100346.31;;;8.66;100.00
11114;BME280;5610;52.154;9.198;2023-02-23T01:09:45;100343.66;;;8.66;100.00
11114;BME280;5610;52.154;9.198;2023-02-23T01:12:30;100344.25;;;8.71;100.00
11114;BME280;5610;52.154;9.198;2023-02-23T01:15:17;100345.72;;;8.77;100.00
11114;BME280;5610;52.154;9.198;2023-02-23T01:18:03;100341.94;;;8.81;100.00
11114;BME280;5610;52.154;9.198;2023-02-23T01:20:48;100339.00;;;8.86;100.00
11114;BME280;5610;52.154;9.198;2023-02-23T01:23:35;100349.34;;;8.90;100.00
11114;BME280;5610;52.154;9.198;2023-02-23T01:26:24;100349.06;;;8.95;100.00
11114;BME280;5610;52.154;9.198;2023-02-23T01:29:12;100355.66;;;9.03;100.00
11114;BME280;5610;52.154;9.198;2023-02-23T01:31:58;100345.69;;;9.07;100.00
11114;BME280;5610;52.154;9.198;2023-02-23T01:34:43;100346.38;;;9.11;100.00
11114;BME280;5610;52.154;9.198;2023-02-23T01:37:33;100352.53;;;9.11;100.00
11114;BME280;5610;52.154;9.198;2023-02-23T01:40:22;100344.47;;;9.13;100.00
11114;BME280;5610;52.154;9.198;2023-02-23T01:43:15;100338.09;;;9.15;100.00
11114;BME280;5610;52.154;9.198;2023-02-23T01:46:01;100340.38;;;9.21;100.00
11114;BME280;5610;52.154;9.198;2023-02-23T01:48:47;100350.75;;;9.26;100.00
11114;BME280;5610;52.154;9.198;2023-02-23T01:51:38;100337.94;;;9.32;100.00
11114;BME280;5610;52.154;9.198;2023-02-23T01:54:27;100347.81;;;9.30;100.00
11114;BME280;5610;52.154;9.198;2023-02-23T01:57:16;100350.88;;;9.39;100.00
11114;BME280;5610;52.154;9.198;2023-02-23T02:00:02;100353.44;;;9.40;100.00
11114;BME280;5610;52.154;9.198;2023-02-23T02:02:58;100359.41;;;9.44;100.00
11114;BME280;5610;52.154;9.198;2023-02-23T02:05:45;100350.41;;;9.46;100.00
11114;BME280;5610;52.154;9.198;2023-02-23T02:08:33;100351.16;;;9.48;100.00
11114;BME280;5610;52.154;9.198;2023-02-23T02:11:26;100351.34;;;9.45;100.00
11114;BME280;5610;52.154;9.198;2023-02-23T02:14:22;100347.91;;;9.43;100.00
11114;BME280;5610;52.154;9.198;2023-02-23T02:17:18;100355.72;;;9.46;100.00
11114;BME280;5610;52.154;9.198;2023-02-23T02:20:34;100348.38;;;9.50;100.00
11114;BME280;5610;52.154;9.198;2023-02-23T02:24:03;100350.66;;;9.56;100.00
11114;BME280;5610;52.154;9.198;2023-02-23T02:27:01;100347.00;;;9.58;100.00
11114;BME280;5610;52.154;9.198;2023-02-23T02:30:22;100346.03;;;9.59;100.00
11114;BME280;5610;52.154;9.198;2023-02-23T02:33:35;100348.00;;;9.56;100.00
11114;BME280;5610;52.154;9.198;2023-02-23T02:37:12;100344.50;;;9.55;100.00
11114;BME280;5610;52.154;9.198;2023-02-23T02:40:08;100346.03;;;9.59;100.00
11114;BME280;5610;52.154;9.198;2023-02-23T02:43:05;100342.22;;;9.63;100.00
11114;BME280;5610;52.154;9.198;2023-02-23T02:45:57;100343.75;;;9.68;100.00
11114;BME280;5610;52.154;9.198;2023-02-23T02:48:48;100338.13;;;9.72;100.00
11114;BME280;5610;52.154;9.198;2023-02-23T02:51:45;100333.47;;;9.76;100.00
11114;BME280;5610;52.154;9.198;2023-02-23T02:54:38;100329.69;;;9.80;100.00
11114;BME280;5610;52.154;9.198;2023-02-23T02:57:25;100336.78;;;9.79;100.00
11114;BME280;5610;52.154;9.198;2023-02-23T03:00:16;100333.38;;;9.77;100.00
11114;BME280;5610;52.154;9.198;2023-02-23T03:03:28;100339.00;;;9.73;100.00
11114;BME280;5610;52.154;9.198;2023-02-23T03:06:34;100331.47;;;9.65;100.00
11114;BME280;5610;52.154;9.198;2023-02-23T03:09:46;100333.84;;;9.55;100.00
11114;BME280;5610;52.154;9.198;2023-02-23T03:12:57;100330.81;;;9.47;100.00
11114;BME280;5610;52.154;9.198;2023-02-23T03:16:15;100322.38;;;9.55;100.00
11114;BME280;5610;52.154;9.198;2023-02-23T03:19:26;100332.72;;;9.45;100.00
11114;BME280;5610;52.154;9.198;2023-02-23T03:22:37;100327.41;;;9.45;100.00
11114;BME280;5610;52.154;9.198;2023-02-23T03:25:48;100335.47;;;9.44;100.00
11114;BME280;5610;52.154;9.198;2023-02-23T03:28:58;100330.63;;;9.50;100.00
11114;BME280;5610;52.154;9.198;2023-02-23T03:32:08;100332.81;;;9.58;100.00
11114;BME280;5610;52.154;9.198;2023-02-23T03:35:17;100337.75;;;9.64;100.00
11114;BME280;5610;52.154;9.198;2023-02-23T03:38:26;100337.47;;;9.69;100.00
11114;BME280;5610;52.154;9.198;2023-02-23T03:41:33;100341.66;;;9.73;100.00
11114;BME280;5610;52.154;9.198;2023-02-23T03:44:40;100332.50;;;9.77;100.00
11114;BME280;5610;52.154;9.198;2023-02-23T03:47:45;100334.22;;;9.78;100.00
11114;BME280;5610;52.154;9.198;2023-02-23T03:50:51;100324.63;;;9.75;100.00
11114;BME280;5610;52.154;9.198;2023-02-23T03:53:59;100323.78;;;9.60;100.00
11114;BME280;5610;52.154;9.198;2023-02-23T03:57:07;100329.28;;;9.72;100.00
11114;BME280;5610;52.154;9.198;2023-02-23T04:00:15;100325.38;;;9.77;100.00
11114;BME280;5610;52.154;9.198;2023-02-23T04:03:20;100332.03;;;9.84;100.00
11114;BME280;5610;52.154;9.198;2023-02-23T04:06:27;100338.03;;;9.88;100.00
11114;BME280;5610;52.154;9.198;2023-02-23T04:09:33;100339.53;;;9.92;100.00
11114;BME280;5610;52.154;9.198;2023-02-23T04:12:45;100342.56;;;9.86;100.00
11114;BME280;5610;52.154;9.198;2023-02-23T04:15:54;100348.66;;;9.88;100.00
11114;BME280;5610;52.154;9.198;2023-02-23T04:18:39;100336.75;;;9.94;100.00
11114;BME280;5610;52.154;9.198;2023-02-23T04:21:25;100341.63;;;10.01;100.00
11114;BME280;5610;52.154;9.198;2023-02-23T04:24:11;100343.69;;;10.10;100.00
11114;BME280;5610;52.154;9.198;2023-02-23T04:26:56;100342.34;;;10.17;100.00
11114;BME280;5610;52.154;9.198;2023-02-23T04:29:43;100346.34;;;10.25;100.00
11114;BME280;5610;52.154;9.198;2023-02-23T04:32:29;100335.47;;;10.28;100.00
11114;BME280;5610;52.154;9.198;2023-02-23T04:35:14;100339.19;;;10.25;100.00
11114;BME280;5610;52.154;9.198;2023-02-23T04:38:00;100340.81;;;10.28;100.00
11114;BME280;5610;52.154;9.198;2023-02-23T04:40:45;100339.00;;;10.28;100.00
11114;BME280;5610;52.154;9.198;2023-02-23T04:43:30;100345.94;;;10.31;100.00
11114;BME280;5610;52.154;9.198;2023-02-23T04:46:17;100342.31;;;10.32;100.00
11114;BME280;5610;52.154;9.198;2023-02-23T04:49:02;100341.16;;;10.36;100.00
11114;BME280;5610;52.154;9.198;2023-02-23T04:51:48;100340.75;;;10.42;100.00
11114;BME280;5610;52.154;9.198;2023-02-23T04:54:36;100341.41;;;10.45;100.00
11114;BME280;5610;52.154;9.198;2023-02-23T04:57:22;100340.00;;;10.40;100.00
11114;BME280;5610;52.154;9.198;2023-02-23T05:00:08;100344.72;;;10.49;100.00
11114;BME280;5610;52.154;9.198;2023-02-23T05:02:55;100351.13;;;10.47;100.00
11114;BME280;5610;52.154;9.198;2023-02-23T05:05:40;100348.78;;;10.55;100.00
11114;BME280;5610;52.154;9.198;2023-02-23T05:08:26;100339.00;;;10.55;100.00
11114;BME280;5610;52.154;9.198;2023-02-23T05:11:11;100339.94;;;10.54;100.00
11114;BME280;5610;52.154;9.198;2023-02-23T05:13:57;100347.38;;;10.49;100.00
11114;BME280;5610;52.154;9.198;2023-02-23T05:16:42;100344.25;;;10.42;100.00
11114;BME280;5610;52.154;9.198;2023-02-23T05:19:29;100352.75;;;10.35;100.00
11114;BME280;5610;52.154;9.198;2023-02-23T05:22:14;100353.47;;;10.24;100.00
11114;BME280;5610;52.154;9.198;2023-02-23T05:24:59;100349.56;;;10.15;100.00
11114;BME280;5610;52.154;9.198;2023-02-23T05:27:47;100352.31;;;10.14;100.00
11114;BME280;5610;52.154;9.198;2023-02-23T05:30:32;100357.84;;;10.11;100.00
11114;BME280;5610;52.154;9.198;2023-02-23T05:33:19;100364.22;;;10.08;100.00
11114;BME280;5610;52.154;9.198;2023-02-23T05:36:07;100367.94;;;9.91;100.00
11114;BME280;5610;52.154;9.198;2023-02-23T05:38:53;100364.63;;;9.88;100.00
11114;BME280;5610;52.154;9.198;2023-02-23T05:41:38;100361.41;;;9.83;100.00
11114;BME280;5610;52.154;9.198;2023-02-23T05:44:25;100354.06;;;9.86;100.00
11114;BME280;5610;52.154;9.198;2023-02-23T05:47:11;100353.88;;;9.89;100.00
11114;BME280;5610;52.154;9.198;2023-02-23T05:49:57;100354.75;;;9.90;100.00
11114;BME280;5610;52.154;9.198;2023-02-23T05:52:43;100353.69;;;9.93;100.00
11114;BME280;5610;52.154;9.198;2023-02-23T05:55:29;100352.66;;;9.95;100.00
11114;BME280;5610;52.154;9.198;2023-02-23T05:58:14;100354.47;;;9.95;100.00
11114;BME280;5610;52.154;9.198;2023-02-23T06:00:59;100351.78;;;9.95;100.00
11114;BME280;5610;52.154;9.198;2023-02-23T06:03:45;100346.47;;;9.95;100.00
11114;BME280;5610;52.154;9.198;2023-02-23T06:06:31;100350.94;;;9.94;100.00
11114;BME280;5610;52.154;9.198;2023-02-23T06:09:18;100352.81;;;9.92;100.00
11114;BME280;5610;52.154;9.198;2023-02-23T06:12:03;100354.25;;;9.98;100.00
11114;BME280;5610;52.154;9.198;2023-02-23T06:14:48;100354.25;;;9.98;100.00
11114;BME280;5610;52.154;9.198;2023-02-23T06:17:34;100352.44;;;9.98;100.00
11114;BME280;5610;52.154;9.198;2023-02-23T06:20:19;100357.66;;;10.00;100.00
11114;BME280;5610;52.154;9.198;2023-02-23T06:23:05;100363.19;;;9.97;100.00
11114;BME280;5610;52.154;9.198;2023-02-23T06:25:52;100370.13;;;9.99;100.00
11114;BME280;5610;52.154;9.198;2023-02-23T06:28:37;100368.31;;;10.00;100.00
11114;BME280;5610;52.154;9.198;2023-02-23T06:31:23;100375.44;;;9.99;100.00
11114;BME280;5610;52.154;9.198;2023-02-23T06:34:08;100372.88;;;9.98;100.00
11114;BME280;5610;52.154;9.198;2023-02-23T06:36:54;100374.59;;;9.99;100.00
11114;BME280;5610;52.154;9.198;2023-02-23T06:39:39;100382.56;;;9.99;100.00
11114;BME280;5610;52.154;9.198;2023-02-23T06:42:26;100386.94;;;10.00;100.00
11114;BME280;5610;52.154;9.198;2023-02-23T06:45:11;100383.34;;;10.01;100.00
11114;BME280;5610;52.154;9.198;2023-02-23T06:47:57;100387.03;;;9.98;100.00
11114;BME280;5610;52.154;9.198;2023-02-23T06:50:42;100385.13;;;10.00;100.00
11114;BME280;5610;52.154;9.198;2023-02-23T06:53:27;100380.75;;;9.99;100.00
11114;BME280;5610;52.154;9.198;2023-02-23T06:56:13;100401.03;;;10.02;100.00
11114;BME280;5610;52.154;9.198;2023-02-23T06:59:00;100402.63;;;10.04;100.00
11114;BME280;5610;52.154;9.198;2023-02-23T07:01:45;100401.56;;;10.07;100.00
11114;BME280;5610;52.154;9.198;2023-02-23T07:04:31;100406.72;;;10.10;100.00
11114;BME280;5610;52.154;9.198;2023-02-23T07:07:16;100405.00;;;10.09;100.00
11114;BME280;5610;52.154;9.198;2023-02-23T07:10:02;100408.44;;;10.11;100.00
11114;BME280;5610;52.154;9.198;2023-02-23T07:12:47;100402.16;;;10.12;100.00
11114;BME280;5610;52.154;9.198;2023-02-23T07:15:35;100399.38;;;10.13;100.00
11114;BME280;5610;52.154;9.198;2023-02-23T07:18:20;100401.97;;;10.15;100.00
11114;BME280;5610;52.154;9.198;2023-02-23T07:21:06;100401.00;;;10.16;100.00
11114;BME280;5610;52.154;9.198;2023-02-23T07:23:51;100407.84;;;10.20;100.00
11114;BME280;5610;52.154;9.198;2023-02-23T07:26:36;100407.69;;;10.23;100.00
11114;BME280;5610;52.154;9.198;2023-02-23T07:29:23;100407.47;;;10.26;100.00
11114;BME280;5610;52.154;9.198;2023-02-23T07:32:12;100410.13;;;10.26;100.00
11114;BME280;5610;52.154;9.198;2023-02-23T07:34:57;100414.22;;;10.32;100.00
11114;BME280;5610;52.154;9.198;2023-02-23T07:37:42;100419.16;;;10.38;100.00
11114;BME280;5610;52.154;9.198;2023-02-23T07:40:28;100410.97;;;10.41;100.00
11114;BME280;5610;52.154;9.198;2023-02-23T07:43:13;100419.53;;;10.46;100.00
11114;BME280;5610;52.154;9.198;2023-02-23T07:45:59;100420.16;;;10.50;100.00
11114;BME280;5610;52.154;9.198;2023-02-23T07:48:46;100417.59;;;10.48;100.00
11114;BME280;5610;52.154;9.198;2023-02-23T07:51:31;100420.84;;;10.53;100.00
11114;BME280;5610;52.154;9.198;2023-02-23T07:54:16;100423.72;;;10.50;100.00
11114;BME280;5610;52.154;9.198;2023-02-23T07:57:02;100432.44;;;10.52;100.00
11114;BME280;5610;52.154;9.198;2023-02-23T07:59:47;100427.00;;;10.54;100.00
11114;BME280;5610;52.154;9.198;2023-02-23T08:02:32;100429.47;;;10.57;100.00
11114;BME280;5610;52.154;9.198;2023-02-23T08:05:19;100430.25;;;10.59;100.00
11114;BME280;5610;52.154;9.198;2023-02-23T08:08:05;100431.09;;;10.59;100.00
11114;BME280;5610;52.154;9.198;2023-02-23T08:10:50;100446.13;;;10.60;100.00
11114;BME280;5610;52.154;9.198;2023-02-23T08:13:35;100435.25;;;10.63;100.00
11114;BME280;5610;52.154;9.198;2023-02-23T08:16:21;100438.59;;;10.67;100.00
11114;BME280;5610;52.154;9.198;2023-02-23T08:19:06;100441.16;;;10.68;100.00
11114;BME280;5610;52.154;9.198;2023-02-23T08:21:53;100442.75;;;10.71;100.00
11114;BME280;5610;52.154;9.198;2023-02-23T08:24:39;100443.31;;;10.76;100.00
11114;BME280;5610;52.154;9.198;2023-02-23T08:27:25;100449.59;;;10.75;100.00
11114;BME280;5610;52.154;9.198;2023-02-23T08:30:11;100440.75;;;10.75;100.00
11114;BME280;5610;52.154;9.198;2023-02-23T08:32:57;100448.25;;;10.82;100.00
11114;BME280;5610;52.154;9.198;2023-02-23T08:35:44;100450.50;;;10.88;100.00
11114;BME280;5610;52.154;9.198;2023-02-23T08:38:30;100451.91;;;10.94;100.00
11114;BME280;5610;52.154;9.198;2023-02-23T08:41:16;100458.66;;;10.99;100.00
11114;BME280;5610;52.154;9.198;2023-02-23T08:44:01;100463.88;;;11.01;100.00
11114;BME280;5610;52.154;9.198;2023-02-23T08:46:47;100451.69;;;10.97;100.00
11114;BME280;5610;52.154;9.198;2023-02-23T08:49:32;100463.44;;;10.94;100.00
11114;BME280;5610;52.154;9.198;2023-02-23T08:52:17;100462.47;;;10.95;100.00
11114;BME280;5610;52.154;9.198;2023-02-23T08:55:05;100461.41;;;10.98;100.00
11114;BME280;5610;52.154;9.198;2023-02-23T08:57:50;100459.59;;;10.98;100.00
11114;BME280;5610;52.154;9.198;2023-02-23T09:00:36;100463.22;;;10.97;100.00
11114;BME280;5610;52.154;9.198;2023-02-23T09:03:21;100467.50;;;11.00;100.00
11114;BME280;5610;52.154;9.198;2023-02-23T09:06:11;100469.00;;;11.04;100.00
11114;BME280;5610;52.154;9.198;2023-02-23T09:08:57;100474.34;;;11.04;100.00
11114;BME280;5610;52.154;9.198;2023-02-23T09:11:44;100477.00;;;11.04;100.00
11114;BME280;5610;52.154;9.198;2023-02-23T09:14:29;100477.84;;;11.05;100.00
11114;BME280;5610;52.154;9.198;2023-02-23T09:17:15;100471.78;;;11.03;100.00
11114;BME280;5610;52.154;9.198;2023-02-23T09:20:00;100477.09;;;11.03;100.00
11114;BME280;5610;52.154;9.198;2023-02-23T09:22:45;100482.56;;;11.01;100.00
11114;BME280;5610;52.154;9.198;2023-02-23T09:25:32;100477.41;;;10.98;100.00
11114;BME280;5610;52.154;9.198;2023-02-23T09:28:19;100482.84;;;10.96;100.00
11114;BME280;5610;52.154;9.198;2023-02-23T09:31:06;100491.06;;;10.93;100.00
11114;BME280;5610;52.154;9.198;2023-02-23T09:33:52;100481.34;;;10.92;100.00
11114;BME280;5610;52.154;9.198;2023-02-23T09:36:38;100486.56;;;10.94;100.00
11114;BME280;5610;52.154;9.198;2023-02-23T09:39:23;100484.44;;;10.99;100.00
11114;BME280;5610;52.154;9.198;2023-02-23T09:42:14;100485.84;;;11.05;100.00
11114;BME280;5610;52.154;9.198;2023-02-23T09:45:11;100493.34;;;11.12;100.00
11114;BME280;5610;52.154;9.198;2023-02-23T09:48:10;100495.72;;;11.17;100.00
11114;BME280;5610;52.154;9.198;2023-02-23T09:50:58;100487.50;;;11.20;100.00
11114;BME280;5610;52.154;9.198;2023-02-23T09:53:47;100488.06;;;11.25;100.00
11114;BME280;5610;52.154;9.198;2023-02-23T09:56:37;100494.91;;;11.29;100.00
11114;BME280;5610;52.154;9.198;2023-02-23T09:59:23;100498.44;;;11.30;100.00
11114;BME280;5610;52.154;9.198;2023-02-23T10:02:18;100503.53;;;11.33;100.00
11114;BME280;5610;52.154;9.198;2023-02-23T10:05:09;100497.06;;;11.37;100.00
11114;BME280;5610;52.154;9.198;2023-02-23T10:08:01;100501.03;;;11.44;100.00
11114;BME280;5610;52.154;9.198;2023-02-23T10:10:56;100496.25;;;11.49;100.00
11114;BME280;5610;52.154;9.198;2023-02-23T10:13:51;100495.06;;;11.53;100.00
11114;BME280;5610;52.154;9.198;2023-02-23T10:16:46;100494.66;;;11.59;100.00
11114;BME280;5610;52.154;9.198;2023-02-23T10:19:41;100500.53;;;11.64;100.00
11114;BME280;5610;52.154;9.198;2023-02-23T10:22:28;100506.63;;;11.66;100.00
11114;BME280;5610;52.154;9.198;2023-02-23T10:25:19;100505.09;;;11.62;100.00
11114;BME280;5610;52.154;9.198;2023-02-23T10:28:11;100502.34;;;11.64;100.00
11114;BME280;5610;52.154;9.198;2023-02-23T10:30:59;100492.19;;;11.56;100.00
11114;BME280;5610;52.154;9.198;2023-02-23T10:33:45;100500.28;;;11.54;100.00
11114;BME280;5610;52.154;9.198;2023-02-23T10:36:36;100503.28;;;11.63;100.00
11114;BME280;5610;52.154;9.198;2023-02-23T10:39:22;100508.63;;;11.63;100.00
11114;BME280;5610;52.154;9.198;2023-02-23T10:42:13;100510.25;;;11.65;100.00
11114;BME280;5610;52.154;9.198;2023-02-23T10:44:59;100504.69;;;11.68;100.00
11114;BME280;5610;52.154;9.198;2023-02-23T10:47:45;100513.47;;;11.70;100.00
11114;BME280;5610;52.154;9.198;2023-02-23T10:50:32;100502.69;;;11.72;100.00
11114;BME280;5610;52.154;9.198;2023-02-23T10:53:23;100507.78;;;11.75;100.00
11114;BME280;5610;52.154;9.198;2023-02-23T10:56:10;100502.50;;;11.88;100.00
11114;BME280;5610;52.154;9.198;2023-02-23T10:58:57;100504.22;;;12.01;100.00
11114;BME280;5610;52.154;9.198;2023-02-23T11:01:43;100494.94;;;12.20;100.00
11114;BME280;5610;52.154;9.198;2023-02-23T11:04:29;100500.88;;;12.36;100.00
11114;BME280;5610;52.154;9.198;2023-02-23T11:07:16;100505.50;;;12.21;100.00
11114;BME280;5610;52.154;9.198;2023-02-23T11:10:24;100497.38;;;12.10;100.00
11114;BME280;5610;52.154;9.198;2023-02-23T11:13:20;100497.97;;;11.75;100.00
11114;BME280;5610;52.154;9.198;2023-02-23T11:16:09;100501.97;;;11.82;100.00
11114;BME280;5610;52.154;9.198;2023-02-23T11:18:58;100492.19;;;11.56;100.00
11114;BME280;5610;52.154;9.198;2023-02-23T11:21:49;100499.66;;;11.51;100.00
11114;BME280;5610;52.154;9.198;2023-02-23T11:24:38;100483.19;;;11.44;100.00
11114;BME280;5610;52.154;9.198;2023-02-23T11:27:26;100488.44;;;11.46;100.00
11114;BME280;5610;52.154;9.198;2023-02-23T11:30:12;100496.31;;;11.47;100.00
11114;BME280;5610;52.154;9.198;2023-02-23T11:32:59;100498.91;;;11.49;100.00
11114;BME280;5610;52.154;9.198;2023-02-23T11:35:57;100491.63;;;11.38;100.00
11114;BME280;5610;52.154;9.198;2023-02-23T11:38:44;100484.28;;;11.42;100.00
11114;BME280;5610;52.154;9.198;2023-02-23T11:41:33;100488.63;;;11.30;100.00
11114;BME280;5610;52.154;9.198;2023-02-23T11:44:22;100490.91;;;11.62;100.00
11114;BME280;5610;52.154;9.198;2023-02-23T11:47:13;100488.59;;;11.82;100.00
11114;BME280;5610;52.154;9.198;2023-02-23T11:50:03;100491.41;;;11.94;100.00
11114;BME280;5610;52.154;9.198;2023-02-23T11:52:52;100479.31;;;12.01;100.00
11114;BME280;5610;52.154;9.198;2023-02-23T11:55:45;100482.19;;;12.23;100.00
11114;BME280;5610;52.154;9.198;2023-02-23T11:58:35;100476.53;;;12.28;100.00
11114;BME280;5610;52.154;9.198;2023-02-23T12:01:36;100482.06;;;12.37;100.00
11114;BME280;5610;52.154;9.198;2023-02-23T12:04:27;100480.66;;;12.45;100.00
11114;BME280;5610;52.154;9.198;2023-02-23T12:07:23;100475.97;;;12.48;100.00
11114;BME280;5610;52.154;9.198;2023-02-23T12:10:17;100475.31;;;12.45;100.00
11114;BME280;5610;52.154;9.198;2023-02-23T12:13:13;100470.19;;;12.42;100.00
11114;BME280;5610;52.154;9.198;2023-02-23T12:16:06;100479.06;;;12.42;100.00
11114;BME280;5610;52.154;9.198;2023-02-23T12:18:58;100466.59;;;12.17;100.00
11114;BME280;5610;52.154;9.198;2023-02-23T12:21:47;100467.44;;;12.18;100.00
11114;BME280;5610;52.154;9.198;2023-02-23T12:24:42;100459.13;;;12.09;100.00
11114;BME280;5610;52.154;9.198;2023-02-23T12:27:31;100463.19;;;12.15;100.00
11114;BME280;5610;52.154;9.198;2023-02-23T12:30:22;100462.09;;;12.05;100.00
11114;BME280;5610;52.154;9.198;2023-02-23T12:33:15;100464.16;;;12.14;100.00
11114;BME280;5610;52.154;9.198;2023-02-23T12:36:12;100464.75;;;12.30;100.00
11114;BME280;5610;52.154;9.198;2023-02-23T12:39:02;100460.00;;;12.47;100.00
11114;BME280;5610;52.154;9.198;2023-02-23T12:41:54;100460.84;;;12.60;100.00
11114;BME280;5610;52.154;9.198;2023-02-23T12:44:47;100464.19;;;12.75;100.00
11114;BME280;5610;52.154;9.198;2023-02-23T12:47:36;100456.88;;;12.89;100.00
11114;BME280;5610;52.154;9.198;2023-02-23T12:50:26;100456.50;;;12.83;100.00
11114;BME280;5610;52.154;9.198;2023-02-23T12:53:19;100459.22;;;12.70;100.00
11114;BME280;5610;52.154;9.198;2023-02-23T12:56:24;100458.13;;;12.73;100.00
11114;BME280;5610;52.154;9.198;2023-02-23T12:59:30;100460.22;;;12.56;100.00
11114;BME280;5610;52.154;9.198;2023-02-23T13:02:26;100461.00;;;12.33;100.00
11114;BME280;5610;52.154;9.198;2023-02-23T13:05:19;100464.16;;;12.01;100.00
11114;BME280;5610;52.154;9.198;2023-02-23T13:08:16;100462.56;;;11.99;100.00
11114;BME280;5610;52.154;9.198;2023-02-23T13:11:12;100471.19;;;11.90;100.00
11114;BME280;5610;52.154;9.198;2023-02-23T13:14:04;100470.41;;;11.75;100.00
11114;BME280;5610;52.154;9.198;2023-02-23T13:16:59;100469.56;;;11.62;100.00
11114;BME280;5610;52.154;9.198;2023-02-23T13:19:49;100468.59;;;11.50;100.00
11114;BME280;5610;52.154;9.198;2023-02-23T13:22:39;100471.69;;;11.57;100.00
11114;BME280;5610;52.154;9.198;2023-02-23T13:25:36;100463.25;;;11.63;100.00
11114;BME280;5610;52.154;9.198;2023-02-23T13:28:35;100463.59;;;11.58;100.00
11114;BME280;5610;52.154;9.198;2023-02-23T13:31:24;100465.72;;;11.66;100.00
11114;BME280;5610;52.154;9.198;2023-02-23T13:34:16;100470.75;;;11.70;100.00
11114;BME280;5610;52.154;9.198;2023-02-23T13:37:05;100470.31;;;11.64;100.00
11114;BME280;5610;52.154;9.198;2023-02-23T13:39:57;100464.03;;;11.65;100.00
11114;BME280;5610;52.154;9.198;2023-02-23T13:42:54;100469.78;;;11.59;100.00
11114;BME280;5610;52.154;9.198;2023-02-23T13:46:03;100465.81;;;11.51;100.00
11114;BME280;5610;52.154;9.198;2023-02-23T13:48:56;100474.66;;;11.39;100.00
11114;BME280;5610;52.154;9.198;2023-02-23T13:51:48;100467.34;;;11.16;100.00
11114;BME280;5610;52.154;9.198;2023-02-23T13:54:35;100461.13;;;11.03;100.00
11114;BME280;5610;52.154;9.198;2023-02-23T13:57:21;100461.50;;;10.96;100.00
11114;BME280;5610;52.154;9.198;2023-02-23T14:00:15;100461.84;;;10.78;100.00
11114;BME280;5610;52.154;9.198;2023-02-23T14:03:05;100467.13;;;10.79;100.00
11114;BME280;5610;52.154;9.198;2023-02-23T14:05:54;100466.44;;;10.76;100.00
11114;BME280;5610;52.154;9.198;2023-02-23T14:08:43;100467.00;;;10.81;100.00
11114;BME280;5610;52.154;9.198;2023-02-23T14:11:45;100468.34;;;10.73;100.00
11114;BME280;5610;52.154;9.198;2023-02-23T14:14:40;100476.78;;;10.53;100.00
11114;BME280;5610;52.154;9.198;2023-02-23T14:17:38;100468.56;;;10.56;100.00
11114;BME280;5610;52.154;9.198;2023-02-23T14:20:42;100473.34;;;10.65;100.00
11114;BME280;5610;52.154;9.198;2023-02-23T14:23:34;100467.81;;;10.54;100.00
11114;BME280;5610;52.154;9.198;2023-02-23T14:26:41;100483.44;;;10.60;100.00
11114;BME280;5610;52.154;9.198;2023-02-23T14:29:29;100476.56;;;10.56;100.00
11114;BME280;5610;52.154;9.198;2023-02-23T14:32:29;100469.63;;;10.54;100.00
11114;BME280;5610;52.154;9.198;2023-02-23T14:35:36;100476.91;;;10.37;100.00
11114;BME280;5610;52.154;9.198;2023-02-23T14:38:30;100475.94;;;10.38;100.00
11114;BME280;5610;52.154;9.198;2023-02-23T14:41:20;100481.44;;;10.21;100.00
11114;BME280;5610;52.154;9.198;2023-02-23T14:44:06;100474.41;;;10.06;100.00
11114;BME280;5610;52.154;9.198;2023-02-23T14:47:00;100476.78;;;10.10;100.00
11114;BME280;5610;52.154;9.198;2023-02-23T14:49:49;100474.22;;;10.09;100.00
11114;BME280;5610;52.154;9.198;2023-02-23T14:52:39;100475.34;;;10.05;100.00
11114;BME280;5610;52.154;9.198;2023-02-23T14:55:26;100480.97;;;10.00;100.00